Time;durP1;ratioP1;P1;durP2;ratioP2;P2;SDS_P1;SDS_P2;PMS_P1;PMS_P2;Temp;Humidity;BMP_temperature;BMP_pressure;BME280_temperature;BME280_humidity;BME280_pressure;Samples;Min_cycle;Max_cycle;Signal;HPM_P1;HPM_P2
2022/04/07 00:01:31;;;;;;;7.55;6.78;;;10.10;99.90;;;;;;5035512;28;20033;-74
2022/04/07 00:03:58;;;;;;;4.97;3.25;;;10.00;99.90;;;;;;5032473;28;20037;-75
2022/04/07 00:06:24;;;;;;;2.42;2.20;;;9.90;99.90;;;;;;5035641;28;20368;-75
2022/04/07 00:08:50;;;;;;;3.67;3.33;;;10.00;99.90;;;;;;5016307;28;20041;-81
2022/04/07 00:11:16;;;;;;;3.67;3.20;;;10.00;99.90;;;;;;5034858;28;20402;-75
2022/04/07 00:13:42;;;;;;;3.42;2.15;;;10.10;99.90;;;;;;5034044;28;20033;-75
2022/04/07 00:16:09;;;;;;;2.72;2.20;;;10.30;99.90;;;;;;5030420;28;20379;-75
2022/04/07 00:18:35;;;;;;;7.95;6.20;;;10.30;99.90;;;;;;5035121;28;20030;-75
2022/04/07 00:21:06;;;;;;;3.33;3.03;;;10.20;99.90;;;;;;5029412;28;20033;-75
2022/04/07 00:23:33;;;;;;;4.47;2.40;;;10.20;99.90;;;;;;5035428;28;20389;-75
2022/04/07 00:25:59;;;;;;;3.00;2.75;;;10.20;99.90;;;;;;5033906;28;20033;-75
2022/04/07 00:28:25;;;;;;;2.90;1.92;;;10.20;99.90;;;;;;5025926;28;20045;-75
2022/04/07 00:30:51;;;;;;;4.07;1.60;;;10.10;99.90;;;;;;5034547;28;20034;-81
2022/04/07 00:33:17;;;;;;;2.42;2.22;;;9.90;99.90;;;;;;5033408;28;20040;-75
2022/04/07 00:35:43;;;;;;;2.17;1.85;;;9.90;99.90;;;;;;5031030;28;20037;-75
2022/04/07 00:38:10;;;;;;;2.10;1.90;;;9.90;99.90;;;;;;5034698;28;20025;-75
2022/04/07 00:40:36;;;;;;;3.35;2.97;;;9.90;99.90;;;;;;5034457;28;20038;-75
2022/04/07 00:43:04;;;;;;;2.42;2.22;;;9.90;99.90;;;;;;5029662;28;20041;-75
2022/04/07 00:45:31;;;;;;;2.75;2.50;;;9.90;99.90;;;;;;5034771;28;20033;-75
2022/04/07 00:47:58;;;;;;;2.83;1.98;;;9.90;99.90;;;;;;5033199;28;20037;-74
2022/04/07 00:50:24;;;;;;;4.32;3.90;;;9.90;99.90;;;;;;5034667;28;20485;-75
2022/04/07 00:52:55;;;;;;;3.72;2.30;;;10.00;99.90;;;;;;5033160;28;20046;-75
2022/04/07 00:55:22;;;;;;;3.15;2.88;;;10.00;99.90;;;;;;5034179;28;20026;-76
2022/04/07 00:57:48;;;;;;;2.13;1.92;;;10.00;99.90;;;;;;5016597;28;20033;-75
2022/04/07 01:00:15;;;;;;;2.25;2.00;;;10.00;99.90;;;;;;5034108;28;20036;-75
2022/04/07 01:02:42;;;;;;;1.88;1.63;;;9.90;99.90;;;;;;5033209;28;20052;-75
2022/04/07 01:05:09;;;;;;;1.75;1.30;;;9.90;99.90;;;;;;5034341;28;20030;-75
2022/04/07 01:07:37;;;;;;;2.63;1.45;;;9.90;99.90;;;;;;5034325;28;20036;-75
2022/04/07 01:10:08;;;;;;;2.85;1.80;;;9.90;99.90;;;;;;5032327;28;20048;-76
2022/04/07 01:12:36;;;;;;;1.70;1.60;;;9.80;99.90;;;;;;5032490;28;20029;-75
2022/04/07 01:15:05;;;;;;;2.17;1.88;;;9.80;99.90;;;;;;5028771;28;20406;-75
2022/04/07 01:17:34;;;;;;;3.03;2.13;;;9.70;99.90;;;;;;5034746;28;20038;-75
2022/04/07 01:20:04;;;;;;;2.92;2.22;;;9.80;99.90;;;;;;5040009;28;20029;-76
2022/04/07 01:22:33;;;;;;;6.10;2.60;;;9.70;99.90;;;;;;5015092;28;20041;-76
2022/04/07 01:24:59;;;;;;;1.90;1.55;;;9.70;99.90;;;;;;5015367;28;20037;-75
2022/04/07 01:27:25;;;;;;;4.13;1.55;;;9.70;99.90;;;;;;5034577;28;20054;-75
2022/04/07 01:29:52;;;;;;;2.47;1.35;;;9.70;99.90;;;;;;5033912;28;20477;-81
2022/04/07 01:32:26;;;;;;;2.28;1.77;;;9.70;99.90;;;;;;5031693;28;20030;-76
2022/04/07 01:34:53;;;;;;;2.00;1.48;;;9.80;99.90;;;;;;5033082;28;20037;-83
2022/04/07 01:37:19;;;;;;;2.42;1.45;;;9.70;99.90;;;;;;5035751;28;20391;-76
2022/04/07 01:39:49;;;;;;;2.35;1.70;;;9.70;99.90;;;;;;5031154;28;20049;-75
2022/04/07 01:42:16;;;;;;;1.20;1.10;;;9.70;99.90;;;;;;5028821;28;20851;-75
2022/04/07 01:44:49;;;;;;;3.40;2.22;;;9.70;99.90;;;;;;5026998;28;20382;-75
2022/04/07 01:47:19;;;;;;;6.30;2.40;;;9.60;99.90;;;;;;5031171;28;20041;-75
2022/04/07 01:49:51;;;;;;;3.30;2.10;;;9.60;99.90;;;;;;5033495;28;20037;-75
2022/04/07 01:52:17;;;;;;;3.53;1.83;;;9.60;99.90;;;;;;5013779;28;20049;-75
2022/04/07 01:54:44;;;;;;;1.83;1.15;;;9.70;99.90;;;;;;5014969;28;20050;-75
2022/04/07 01:57:11;;;;;;;1.75;1.40;;;9.70;99.90;;;;;;5025714;28;20045;-75
2022/04/07 01:59:37;;;;;;;3.08;1.20;;;9.80;99.90;;;;;;5033122;28;20054;-75
2022/04/07 02:02:04;;;;;;;2.30;1.92;;;9.80;99.90;;;;;;5031670;28;20033;-75
2022/04/07 02:04:30;;;;;;;5.68;1.85;;;9.80;99.90;;;;;;5014633;28;20049;-75
2022/04/07 02:06:57;;;;;;;3.35;2.70;;;9.90;99.90;;;;;;5028345;28;20030;-76
2022/04/07 02:09:24;;;;;;;3.65;2.28;;;9.80;99.90;;;;;;5032967;28;20040;-76
2022/04/07 02:11:50;;;;;;;1.63;1.10;;;9.90;99.90;;;;;;5031998;28;20387;-76
2022/04/07 02:14:16;;;;;;;1.85;1.35;;;9.90;99.90;;;;;;5026421;28;20044;-75
2022/04/07 02:16:42;;;;;;;2.63;1.92;;;9.90;99.90;;;;;;5031963;28;20041;-75
2022/04/07 02:19:09;;;;;;;2.15;1.95;;;9.90;99.90;;;;;;5012766;28;20055;-76
2022/04/07 02:21:35;;;;;;;1.73;1.35;;;9.90;99.90;;;;;;5031266;28;20039;-80
2022/04/07 02:24:01;;;;;;;1.40;1.10;;;9.90;99.90;;;;;;5031219;28;20045;-75
2022/04/07 02:26:27;;;;;;;1.60;1.00;;;9.80;99.90;;;;;;5027311;28;20068;-77
2022/04/07 02:28:54;;;;;;;1.80;1.58;;;9.80;99.90;;;;;;5014376;28;20064;-81
2022/04/07 02:31:20;;;;;;;1.13;1.02;;;9.80;99.90;;;;;;5031652;28;20395;-75
2022/04/07 02:33:46;;;;;;;1.20;0.80;;;9.80;99.90;;;;;;5031103;28;20033;-75
2022/04/07 02:36:14;;;;;;;1.67;1.05;;;9.90;99.90;;;;;;5028123;28;20216;-76
2022/04/07 02:38:40;;;;;;;1.65;1.23;;;9.90;99.90;;;;;;5032272;28;20029;-76
2022/04/07 02:41:06;;;;;;;4.30;1.35;;;9.90;99.90;;;;;;5029122;28;20391;-75
2022/04/07 02:43:32;;;;;;;1.52;1.05;;;9.80;99.90;;;;;;5012354;28;20045;-76
2022/04/07 02:45:59;;;;;;;1.45;0.75;;;9.80;99.90;;;;;;5035255;28;20052;-76
2022/04/07 02:48:25;;;;;;;2.30;0.80;;;9.80;99.90;;;;;;5032128;28;20032;-76
2022/04/07 02:50:51;;;;;;;1.63;1.15;;;9.80;99.90;;;;;;5032199;28;20022;-75
2022/04/07 02:53:17;;;;;;;0.85;0.60;;;9.80;99.90;;;;;;5011471;28;20050;-76
2022/04/07 02:55:43;;;;;;;0.90;0.80;;;9.80;99.90;;;;;;5025951;28;20033;-75
2022/04/07 02:58:09;;;;;;;1.33;0.70;;;9.80;99.90;;;;;;5013994;28;20041;-76
2022/04/07 03:00:36;;;;;;;0.73;0.70;;;9.80;99.90;;;;;;5033635;28;20040;-76
2022/04/07 03:03:02;;;;;;;3.08;0.98;;;9.80;99.90;;;;;;5030141;28;20091;-75
2022/04/07 03:05:28;;;;;;;1.52;0.98;;;9.70;99.90;;;;;;5027162;28;20056;-75
2022/04/07 03:07:55;;;;;;;1.77;1.15;;;9.80;99.90;;;;;;5029402;28;20037;-80
2022/04/07 03:10:21;;;;;;;1.75;1.02;;;9.70;99.90;;;;;;5013918;28;20048;-77
2022/04/07 03:12:47;;;;;;;3.33;1.33;;;9.80;99.90;;;;;;5021380;28;20049;-75
2022/04/07 03:15:13;;;;;;;1.85;1.10;;;9.80;99.90;;;;;;5031171;28;20025;-75
2022/04/07 03:17:39;;;;;;;3.53;1.20;;;9.80;99.90;;;;;;5025110;28;20528;-75
2022/04/07 03:20:06;;;;;;;6.45;2.08;;;9.80;99.90;;;;;;5031226;28;20382;-74
2022/04/07 03:22:32;;;;;;;3.67;1.58;;;9.90;99.90;;;;;;5026435;28;20056;-75
2022/04/07 03:24:58;;;;;;;0.93;0.80;;;9.90;99.90;;;;;;5026402;28;20052;-76
2022/04/07 03:27:25;;;;;;;1.13;0.82;;;10.00;99.90;;;;;;5031353;28;20053;-75
2022/04/07 03:29:51;;;;;;;2.08;1.75;;;9.90;99.90;;;;;;5035818;28;20033;-74
2022/04/07 03:32:17;;;;;;;1.80;0.93;;;9.90;99.90;;;;;;5032566;28;20029;-76
2022/04/07 03:34:43;;;;;;;1.80;0.95;;;10.00;99.90;;;;;;5038240;28;20040;-75
2022/04/07 03:37:10;;;;;;;1.17;1.05;;;10.10;99.90;;;;;;5038621;28;20041;-75
2022/04/07 03:39:36;;;;;;;3.00;1.35;;;10.10;99.90;;;;;;5039504;28;20474;-75
2022/04/07 03:42:03;;;;;;;4.40;0.90;;;10.10;99.90;;;;;;5033692;28;20057;-75
2022/04/07 03:44:29;;;;;;;4.53;2.53;;;10.10;99.90;;;;;;5017234;28;20128;-75
2022/04/07 03:46:57;;;;;;;5.18;3.80;;;10.10;99.90;;;;;;5029869;28;20025;-82
2022/04/07 03:49:23;;;;;;;32.60;29.05;;;10.00;99.90;;;;;;5035631;28;20044;-75
2022/04/07 03:51:50;;;;;;;6.78;4.65;;;10.10;99.90;;;;;;5032992;28;20387;-75
2022/04/07 03:54:17;;;;;;;3.67;2.83;;;10.00;99.90;;;;;;5029439;28;20064;-76
2022/04/07 03:56:45;;;;;;;5.13;2.22;;;10.10;99.90;;;;;;5028577;28;20033;-75
2022/04/07 03:59:12;;;;;;;16.33;14.50;;;10.00;99.90;;;;;;5032390;28;20033;-77
2022/04/07 04:01:39;;;;;;;5.95;3.38;;;10.00;99.90;;;;;;5031815;28;20041;-78
2022/04/07 04:04:06;;;;;;;5.95;4.50;;;10.00;99.90;;;;;;5016508;28;20493;-75
2022/04/07 04:06:35;;;;;;;6.93;4.35;;;10.10;99.90;;;;;;5014381;28;20030;-76
2022/04/07 04:09:03;;;;;;;3.40;2.63;;;10.10;99.90;;;;;;5033542;28;20022;-77
2022/04/07 04:11:29;;;;;;;2.83;2.40;;;10.20;99.90;;;;;;5030748;28;20030;-76
2022/04/07 04:13:55;;;;;;;9.25;6.82;;;10.10;99.90;;;;;;5027343;28;20056;-81
2022/04/07 04:16:22;;;;;;;2.10;1.67;;;10.10;99.90;;;;;;5034715;28;20029;-77
2022/04/07 04:18:48;;;;;;;4.40;4.00;;;10.10;99.90;;;;;;5027660;28;20029;-77
2022/04/07 04:21:14;;;;;;;3.15;2.65;;;10.10;99.90;;;;;;5010316;28;20625;-81
2022/04/07 04:23:41;;;;;;;1.52;1.20;;;10.00;99.90;;;;;;5033923;28;20466;-80
2022/04/07 04:26:07;;;;;;;3.30;1.10;;;10.00;99.90;;;;;;5034114;28;20064;-80
2022/04/07 04:28:33;;;;;;;5.20;4.70;;;10.10;99.90;;;;;;5028515;28;20395;-81
2022/04/07 04:30:59;;;;;;;5.20;2.85;;;10.00;99.90;;;;;;5032600;28;20044;-80
2022/04/07 04:33:25;;;;;;;3.75;2.00;;;10.00;99.90;;;;;;5027698;28;20049;-80
2022/04/07 04:35:52;;;;;;;5.28;3.17;;;10.00;99.90;;;;;;5035201;28;20025;-80
2022/04/07 04:38:18;;;;;;;3.35;1.90;;;9.90;99.90;;;;;;5029071;28;20398;-80
2022/04/07 04:40:44;;;;;;;3.38;2.20;;;9.90;99.90;;;;;;5032466;28;20082;-80
2022/04/07 04:43:10;;;;;;;3.10;2.10;;;9.90;99.90;;;;;;5032599;28;20046;-80
2022/04/07 04:45:36;;;;;;;2.97;1.98;;;10.00;99.90;;;;;;5034512;28;20462;-80
2022/04/07 04:48:03;;;;;;;6.38;3.58;;;10.00;99.90;;;;;;5033879;28;20029;-80
2022/04/07 04:50:29;;;;;;;8.48;2.72;;;10.00;99.90;;;;;;5017118;28;20037;-79
2022/04/07 04:52:55;;;;;;;1.85;1.48;;;9.90;99.90;;;;;;5015528;28;20034;-80
2022/04/07 04:55:21;;;;;;;3.50;3.20;;;9.80;99.90;;;;;;5029625;28;20049;-80
2022/04/07 04:57:47;;;;;;;1.90;1.05;;;9.80;99.90;;;;;;5034895;28;20036;-79
2022/04/07 05:00:14;;;;;;;2.65;1.17;;;9.80;99.90;;;;;;5034512;28;20045;-80
2022/04/07 05:02:40;;;;;;;1.15;0.68;;;9.80;99.90;;;;;;5026701;28;20025;-79
2022/04/07 05:05:07;;;;;;;1.77;0.90;;;9.80;99.90;;;;;;5028622;28;20510;-80
2022/04/07 05:07:33;;;;;;;2.53;1.20;;;9.80;99.90;;;;;;5032210;28;20021;-80
2022/04/07 05:10:00;;;;;;;1.00;0.80;;;9.80;99.90;;;;;;5016004;28;20052;-80
2022/04/07 05:12:29;;;;;;;2.22;1.17;;;9.80;99.90;;;;;;5026761;28;20464;-80
2022/04/07 05:14:55;;;;;;;1.20;0.65;;;9.80;99.90;;;;;;5034183;28;20033;-80
2022/04/07 05:17:22;;;;;;;2.25;0.63;;;9.80;99.90;;;;;;5040550;28;20045;-80
2022/04/07 05:19:48;;;;;;;0.43;0.30;;;9.80;99.90;;;;;;5034314;28;20029;-81
2022/04/07 05:22:14;;;;;;;1.02;0.85;;;9.90;99.90;;;;;;5024837;28;20858;-80
2022/04/07 05:24:41;;;;;;;0.75;0.45;;;9.90;99.90;;;;;;5033543;28;20040;-81
2022/04/07 05:27:07;;;;;;;0.50;0.47;;;9.90;99.90;;;;;;5022894;28;20053;-80
2022/04/07 05:29:33;;;;;;;3.58;0.90;;;10.00;99.90;;;;;;5034571;28;20029;-80
2022/04/07 05:31:59;;;;;;;0.90;0.60;;;10.00;99.90;;;;;;5034497;28;20033;-81
2022/04/07 05:34:25;;;;;;;0.90;0.70;;;10.10;99.90;;;;;;5036433;28;20029;-80
2022/04/07 05:36:52;;;;;;;2.15;0.57;;;10.10;99.90;;;;;;5038261;28;20041;-79
2022/04/07 05:39:18;;;;;;;0.40;0.40;;;10.10;99.90;;;;;;5026249;28;20030;-80
2022/04/07 05:41:44;;;;;;;0.47;0.30;;;10.10;99.90;;;;;;5034500;28;20037;-82
2022/04/07 05:44:10;;;;;;;1.85;1.30;;;10.10;99.90;;;;;;5016698;28;20425;-81
2022/04/07 05:46:37;;;;;;;2.88;2.10;;;10.10;99.90;;;;;;5033654;28;20029;-80
2022/04/07 05:49:03;;;;;;;2.38;0.75;;;10.00;99.90;;;;;;5033552;28;20378;-80
2022/04/07 05:51:29;;;;;;;0.70;0.47;;;10.10;99.90;;;;;;5033825;28;20025;-80
2022/04/07 05:53:55;;;;;;;1.27;0.50;;;10.10;99.90;;;;;;5035203;28;20359;-79
2022/04/07 05:56:21;;;;;;;2.78;0.70;;;10.10;99.90;;;;;;5016301;28;20489;-80
2022/04/07 05:58:47;;;;;;;1.95;0.90;;;10.10;99.90;;;;;;5033650;28;20026;-80
2022/04/07 06:01:14;;;;;;;1.00;0.50;;;10.10;99.90;;;;;;5011484;28;20486;-80
2022/04/07 06:03:40;;;;;;;0.40;0.40;;;10.10;99.90;;;;;;5013734;28;20068;-80
2022/04/07 06:06:07;;;;;;;1.17;0.70;;;10.10;99.90;;;;;;5014413;28;20029;-80
2022/04/07 06:08:33;;;;;;;0.55;0.50;;;10.10;99.90;;;;;;5031722;28;20041;-78
2022/04/07 06:10:59;;;;;;;0.80;0.50;;;10.10;99.90;;;;;;5029806;28;20026;-80
2022/04/07 06:13:25;;;;;;;3.22;2.08;;;10.10;99.90;;;;;;5031631;28;20037;-80
2022/04/07 06:15:52;;;;;;;1.73;1.10;;;10.10;99.90;;;;;;5028737;28;20459;-79
2022/04/07 06:18:18;;;;;;;4.70;4.22;;;10.10;99.90;;;;;;5030593;28;20049;-80
2022/04/07 06:20:46;;;;;;;6.60;3.95;;;10.20;99.90;;;;;;5032701;28;20025;-80
2022/04/07 06:23:13;;;;;;;5.22;4.72;;;10.30;99.90;;;;;;5026593;28;20036;-79
2022/04/07 06:25:39;;;;;;;2.45;2.25;;;10.30;99.90;;;;;;5027147;28;20044;-79
2022/04/07 06:28:06;;;;;;;3.88;2.85;;;10.30;99.90;;;;;;5026580;28;20034;-80
2022/04/07 06:30:32;;;;;;;1.80;1.42;;;10.30;99.90;;;;;;5032140;28;20060;-79
2022/04/07 06:32:58;;;;;;;3.17;2.17;;;10.30;99.90;;;;;;5028745;28;20026;-83
2022/04/07 06:35:24;;;;;;;2.63;0.80;;;10.30;99.90;;;;;;5026478;28;20045;-78
2022/04/07 06:37:56;;;;;;;0.60;0.40;;;10.30;99.90;;;;;;5032373;28;20041;-80
2022/04/07 06:40:28;;;;;;;1.80;1.30;;;10.30;99.90;;;;;;5032351;28;20032;-79
2022/04/07 06:42:56;;;;;;;1.02;0.60;;;10.30;99.90;;;;;;5025306;28;20037;-79
2022/04/07 06:45:24;;;;;;;0.57;0.47;;;10.30;99.90;;;;;;5032964;28;20049;-79
2022/04/07 06:47:50;;;;;;;1.52;1.30;;;10.20;99.90;;;;;;5033112;28;20060;-79
2022/04/07 06:50:18;;;;;;;0.35;0.30;;;10.20;99.90;;;;;;5032903;28;20037;-79
2022/04/07 06:52:44;;;;;;;1.40;0.52;;;10.20;99.90;;;;;;5005199;28;20025;-79
2022/04/07 06:55:12;;;;;;;1.10;0.55;;;10.20;99.90;;;;;;5032422;28;20041;-79
2022/04/07 06:57:51;;;;;;;4.50;0.52;;;10.20;99.90;;;;;;5032908;28;20029;-79
2022/04/07 07:00:19;;;;;;;0.40;0.30;;;10.20;99.90;;;;;;5031748;28;20029;-79
2022/04/07 07:02:47;;;;;;;0.65;0.40;;;10.20;99.90;;;;;;5030691;28;20523;-80
2022/04/07 07:05:14;;;;;;;1.50;0.47;;;10.20;99.90;;;;;;5030439;28;20470;-79
2022/04/07 07:07:41;;;;;;;0.57;0.40;;;10.30;99.90;;;;;;5013903;28;20045;-80
2022/04/07 07:10:08;;;;;;;0.80;0.40;;;10.30;99.90;;;;;;5026950;28;20631;-79
2022/04/07 07:12:34;;;;;;;1.10;0.40;;;10.30;99.90;;;;;;5028181;28;20022;-80
2022/04/07 07:15:01;;;;;;;0.50;0.40;;;10.30;99.90;;;;;;5014175;28;20064;-78
2022/04/07 07:17:33;;;;;;;1.00;0.40;;;10.20;99.90;;;;;;5029680;28;20100;-79
2022/04/07 07:20:01;;;;;;;1.38;0.75;;;10.20;99.90;;;;;;5032127;28;20033;-80
2022/04/07 07:22:27;;;;;;;0.43;0.40;;;10.30;99.90;;;;;;5030869;28;20068;-79
2022/04/07 07:24:54;;;;;;;1.52;0.77;;;10.30;99.90;;;;;;5014034;28;20044;-80
2022/04/07 07:27:20;;;;;;;1.10;0.45;;;10.30;99.90;;;;;;5031869;28;20053;-79
2022/04/07 07:29:47;;;;;;;0.50;0.40;;;10.20;99.90;;;;;;5032173;28;20038;-79
2022/04/07 07:32:13;;;;;;;0.95;0.60;;;10.20;99.90;;;;;;5025729;28;20034;-79
2022/04/07 07:34:39;;;;;;;0.98;0.57;;;10.20;99.90;;;;;;5028615;28;20459;-80
2022/04/07 07:37:06;;;;;;;0.40;0.40;;;10.30;99.90;;;;;;5031650;28;20040;-80
2022/04/07 07:39:32;;;;;;;1.08;0.57;;;10.20;99.90;;;;;;5021238;28;20394;-80
2022/04/07 07:41:58;;;;;;;2.15;0.32;;;10.30;99.90;;;;;;5031370;28;20057;-79
2022/04/07 07:44:24;;;;;;;1.23;0.43;;;10.10;99.90;;;;;;5030554;28;20052;-80
2022/04/07 07:46:51;;;;;;;0.75;0.30;;;10.10;99.90;;;;;;5019393;28;20041;-80
2022/04/07 07:49:17;;;;;;;0.60;0.50;;;10.00;99.90;;;;;;5028543;28;20064;-79
2022/04/07 07:51:43;;;;;;;0.88;0.65;;;10.00;99.90;;;;;;5032724;28;20034;-79
2022/04/07 07:54:09;;;;;;;0.55;0.55;;;10.10;99.90;;;;;;5026687;28;20026;-79
2022/04/07 07:56:36;;;;;;;2.28;1.80;;;10.10;99.90;;;;;;5028577;28;20033;-79
2022/04/07 07:59:02;;;;;;;5.28;2.88;;;10.20;99.90;;;;;;5030905;28;20030;-79
2022/04/07 08:01:28;;;;;;;1.23;0.93;;;10.20;99.90;;;;;;5031849;28;20049;-81
2022/04/07 08:03:54;;;;;;;0.47;0.28;;;10.20;99.90;;;;;;5012505;28;20053;-80
2022/04/07 08:06:20;;;;;;;0.70;0.57;;;10.30;99.90;;;;;;5032287;28;20028;-78
2022/04/07 08:08:47;;;;;;;3.50;0.80;;;10.40;99.90;;;;;;5014996;28;20036;-79
2022/04/07 08:11:13;;;;;;;1.90;0.90;;;10.40;99.90;;;;;;5038404;28;20040;-79
2022/04/07 08:13:39;;;;;;;0.73;0.60;;;10.40;99.90;;;;;;5015579;28;20050;-80
2022/04/07 08:16:05;;;;;;;1.17;0.75;;;10.30;99.90;;;;;;5034769;28;20546;-79
2022/04/07 08:18:31;;;;;;;0.88;0.30;;;10.30;99.90;;;;;;5032069;28;20048;-79
2022/04/07 08:20:58;;;;;;;0.95;0.82;;;10.20;99.90;;;;;;5034765;28;20026;-79
2022/04/07 08:23:24;;;;;;;4.60;1.70;;;10.20;99.90;;;;;;5016792;28;20033;-81
2022/04/07 08:25:50;;;;;;;1.38;1.08;;;10.20;99.90;;;;;;5017520;28;20056;-79
2022/04/07 08:28:16;;;;;;;0.65;0.40;;;10.20;99.90;;;;;;5034585;28;20037;-80
2022/04/07 08:30:43;;;;;;;2.97;0.50;;;10.20;99.90;;;;;;5035385;28;20037;-81
2022/04/07 08:33:09;;;;;;;1.13;0.70;;;10.30;99.90;;;;;;5028501;28;20033;-80
2022/04/07 08:35:35;;;;;;;0.90;0.55;;;10.40;99.90;;;;;;5033631;28;20041;-79
2022/04/07 08:38:01;;;;;;;0.77;0.65;;;10.40;99.90;;;;;;5029668;28;20459;-79
2022/04/07 08:40:28;;;;;;;0.95;0.60;;;10.50;99.90;;;;;;5034103;28;20033;-80
2022/04/07 08:42:55;;;;;;;0.93;0.77;;;10.60;99.90;;;;;;5016836;28;20022;-79
2022/04/07 08:45:22;;;;;;;0.98;0.50;;;10.70;99.90;;;;;;5036173;28;20050;-79
2022/04/07 08:47:48;;;;;;;0.68;0.40;;;10.80;99.90;;;;;;5034842;28;20041;-80
2022/04/07 08:50:16;;;;;;;0.70;0.35;;;10.80;99.90;;;;;;5030713;28;20424;-79
2022/04/07 08:52:42;;;;;;;0.90;0.50;;;10.80;99.90;;;;;;5015897;28;20037;-80
2022/04/07 08:55:09;;;;;;;1.63;0.57;;;10.90;99.90;;;;;;5032400;28;20049;-79
2022/04/07 08:57:37;;;;;;;0.88;0.70;;;11.00;99.90;;;;;;5032508;28;20037;-79
2022/04/07 09:00:04;;;;;;;0.95;0.65;;;11.10;99.90;;;;;;5030980;28;20048;-78
2022/04/07 09:02:30;;;;;;;0.60;0.43;;;11.20;99.90;;;;;;5030417;28;20030;-79
2022/04/07 09:05:01;;;;;;;4.45;0.80;;;11.30;99.90;;;;;;5034844;28;20383;-79
2022/04/07 09:07:34;;;;;;;2.53;1.00;;;11.40;99.90;;;;;;5036284;28;20045;-79
2022/04/07 09:10:01;;;;;;;0.95;0.70;;;11.50;99.90;;;;;;5032118;28;20026;-80
2022/04/07 09:12:28;;;;;;;1.15;0.77;;;11.40;99.90;;;;;;5028883;28;20033;-80
2022/04/07 09:14:59;;;;;;;1.05;0.95;;;11.50;99.90;;;;;;5033280;28;20042;-79
2022/04/07 09:17:26;;;;;;;2.08;0.82;;;11.50;99.90;;;;;;5027755;28;20033;-79
2022/04/07 09:19:53;;;;;;;0.90;0.40;;;11.40;99.90;;;;;;5032168;28;20036;-79
2022/04/07 09:22:30;;;;;;;1.08;0.73;;;11.50;99.90;;;;;;5033390;28;20030;-79
2022/04/07 09:25:03;;;;;;;0.70;0.47;;;11.50;99.90;;;;;;5034044;28;20651;-79
2022/04/07 09:27:29;;;;;;;0.88;0.63;;;11.50;99.90;;;;;;5035508;28;20386;-79
2022/04/07 09:29:56;;;;;;;1.65;0.63;;;11.50;99.90;;;;;;5038267;28;20052;-79
2022/04/07 09:32:25;;;;;;;1.08;0.52;;;11.50;99.90;;;;;;5015097;28;20029;-79
2022/04/07 09:34:59;;;;;;;0.73;0.50;;;11.60;99.90;;;;;;5013213;28;20364;-79
2022/04/07 09:37:28;;;;;;;0.88;0.63;;;11.60;99.90;;;;;;5034963;28;20029;-80
2022/04/07 09:40:14;;;;;;;0.68;0.50;;;11.50;99.90;;;;;;5034012;28;20044;-80
2022/04/07 09:42:42;;;;;;;0.95;0.70;;;11.60;99.90;;;;;;5018049;28;20026;-79
2022/04/07 09:45:12;;;;;;;9.25;0.55;;;11.70;99.90;;;;;;5033589;28;20041;-80
2022/04/07 09:47:46;;;;;;;0.93;0.70;;;11.90;99.90;;;;;;5032298;28;20042;-80
2022/04/07 09:50:22;;;;;;;1.00;0.60;;;11.90;99.90;;;;;;5015422;28;20046;-79
2022/04/07 09:53:05;;;;;;;0.70;0.30;;;11.80;99.90;;;;;;5030990;28;20466;-80
2022/04/07 09:55:41;;;;;;;4.47;3.20;;;11.70;99.90;;;;;;5032454;28;20040;-79
2022/04/07 09:58:11;;;;;;;3.30;3.00;;;11.60;99.90;;;;;;5034277;28;20033;-79
2022/04/07 10:00:38;;;;;;;1.80;0.85;;;11.60;99.90;;;;;;5034377;28;20034;-80
2022/04/07 10:03:06;;;;;;;0.63;0.60;;;11.50;99.90;;;;;;5030765;28;20038;-79
2022/04/07 10:05:32;;;;;;;2.70;1.08;;;11.40;99.90;;;;;;5038455;28;20426;-79
2022/04/07 10:07:58;;;;;;;2.47;0.45;;;11.40;99.90;;;;;;5019143;28;20026;-79
2022/04/07 10:10:25;;;;;;;0.65;0.43;;;11.30;99.90;;;;;;5014619;28;20049;-80
2022/04/07 10:12:52;;;;;;;1.90;1.05;;;11.40;99.90;;;;;;5033559;28;20033;-79
2022/04/07 10:15:19;;;;;;;0.88;0.52;;;11.40;99.90;;;;;;5028405;28;20466;-80
2022/04/07 10:17:46;;;;;;;1.00;0.57;;;11.50;99.90;;;;;;5034166;28;20049;-78
2022/04/07 10:20:17;;;;;;;0.70;0.38;;;11.70;99.90;;;;;;5034507;28;20041;-80
2022/04/07 10:23:34;;;;;;;4.80;1.90;;;11.80;99.90;;;;;;5037157;28;20032;-80
2022/04/07 10:26:02;;;;;;;1.08;0.77;;;11.60;99.90;;;;;;5017837;28;20061;-79
2022/04/07 10:28:29;;;;;;;1.90;0.70;;;11.70;99.90;;;;;;5036361;28;20061;-78
2022/04/07 10:30:56;;;;;;;1.05;0.95;;;11.80;99.90;;;;;;5034724;28;20029;-80
2022/04/07 10:33:32;;;;;;;0.98;0.50;;;12.00;99.90;;;;;;5031461;28;20076;-80
2022/04/07 10:36:00;;;;;;;0.80;0.50;;;12.30;99.90;;;;;;5035033;28;20048;-77
2022/04/07 10:38:42;;;;;;;0.77;0.50;;;12.30;99.90;;;;;;5015027;28;20064;-78
2022/04/07 10:41:09;;;;;;;0.73;0.40;;;12.30;99.90;;;;;;5014758;28;20029;-78
2022/04/07 10:43:40;;;;;;;1.05;0.40;;;12.20;99.90;;;;;;5017905;28;20041;-79
2022/04/07 10:46:18;;;;;;;0.30;0.30;;;12.20;99.90;;;;;;5030140;28;20041;-79
2022/04/07 10:49:06;;;;;;;1.42;0.32;;;12.40;99.90;;;;;;5030484;28;20029;-79
2022/04/07 10:51:53;;;;;;;0.43;0.30;;;12.30;99.90;;;;;;5019150;28;20049;-80
2022/04/07 10:54:21;;;;;;;1.60;0.43;;;12.30;99.90;;;;;;5015105;28;20041;-80
2022/04/07 10:56:49;;;;;;;1.20;0.40;;;12.20;99.90;;;;;;5030446;28;20029;-80
2022/04/07 10:59:22;;;;;;;0.63;0.30;;;12.10;99.90;;;;;;5035185;28;20033;-79
2022/04/07 11:01:56;;;;;;;0.20;0.20;;;12.10;99.90;;;;;;5028768;28;20042;-80
2022/04/07 11:04:22;;;;;;;1.23;0.60;;;12.10;99.90;;;;;;5029461;28;20045;-81
2022/04/07 11:07:19;;;;;;;0.10;0.10;;;12.00;99.90;;;;;;5032553;28;20037;-81
2022/04/07 11:09:58;;;;;;;0.57;0.50;;;12.10;99.90;;;;;;5031390;28;20029;-81
2022/04/07 11:12:29;;;;;;;0.20;0.20;;;12.30;99.90;;;;;;5028264;28;20395;-82
2022/04/07 11:15:01;;;;;;;0.90;0.40;;;12.30;99.90;;;;;;5017539;28;20482;-80
2022/04/07 11:17:45;;;;;;;0.77;0.35;;;12.40;99.90;;;;;;5030873;28;20029;-80
2022/04/07 11:20:15;;;;;;;2.90;0.55;;;12.40;99.90;;;;;;5033433;28;20030;-80
2022/04/07 11:23:13;;;;;;;1.38;0.50;;;12.40;99.90;;;;;;5028137;28;20046;-79
2022/04/07 11:25:42;;;;;;;3.92;0.35;;;12.30;99.90;;;;;;5035245;28;20390;-80
2022/04/07 11:28:17;;;;;;;1.27;0.70;;;12.40;99.90;;;;;;4995525;28;20053;-81
2022/04/07 11:30:54;;;;;;;3.13;0.40;;;12.50;99.90;;;;;;4992097;28;20046;-82
2022/04/07 11:33:25;;;;;;;0.70;0.35;;;12.60;99.90;;;;;;4987585;28;20110;-81
2022/04/07 11:36:02;;;;;;;;;;;12.80;99.90;;;;;;5000746;28;20034;-79
2022/04/07 11:38:58;;;;;;;0.50;0.30;;;12.80;99.90;;;;;;4994843;28;20363;-78
2022/04/07 11:41:32;;;;;;;0.45;0.30;;;13.00;99.90;;;;;;4984327;28;20047;-81
2022/04/07 11:43:58;;;;;;;1.88;0.38;;;12.80;99.90;;;;;;4987371;28;20069;-81
2022/04/07 11:46:26;;;;;;;1.00;0.50;;;12.70;99.90;;;;;;4996054;28;20035;-81
2022/04/07 11:48:55;;;;;;;2.38;1.40;;;12.60;99.90;;;;;;4995047;28;20035;-82
2022/04/07 11:51:24;;;;;;;5.05;4.25;;;12.70;99.90;;;;;;4996262;28;20058;-81
2022/04/07 11:53:55;;;;;;;1.38;1.27;;;12.80;99.90;;;;;;4992448;28;20126;-80
2022/04/07 11:56:25;;;;;;;0.98;0.75;;;13.00;99.90;;;;;;4986681;28;20049;-81
2022/04/07 11:58:56;;;;;;;0.85;0.55;;;13.10;99.90;;;;;;4997977;28;20041;-81
2022/04/07 12:01:23;;;;;;;;;;;13.10;99.90;;;;;;4991081;28;20396;-80
2022/04/07 12:03:54;;;;;;;0.68;0.45;;;13.10;99.90;;;;;;4996948;28;19910;-80
2022/04/07 12:06:24;;;;;;;0.60;0.50;;;13.30;99.90;;;;;;4994046;28;20440;-81
2022/04/07 12:08:51;;;;;;;1.15;0.57;;;13.40;99.90;;;;;;4998135;28;20034;-79
2022/04/07 12:11:19;;;;;;;0.75;0.32;;;13.40;99.90;;;;;;5001912;28;20031;-80
2022/04/07 12:13:47;;;;;;;0.63;0.45;;;13.40;99.90;;;;;;4993935;28;20027;-79
2022/04/07 12:16:14;;;;;;;1.85;0.77;;;13.40;99.90;;;;;;4980645;28;20050;-80
2022/04/07 12:18:40;;;;;;;1.15;0.40;;;13.50;99.90;;;;;;4996930;28;20041;-79
2022/04/07 12:21:09;;;;;;;1.65;0.50;;;13.60;99.90;;;;;;4996605;28;20045;-80
2022/04/07 12:23:40;;;;;;;0.90;0.32;;;13.80;99.90;;;;;;4989667;28;20041;-79
2022/04/07 12:26:08;;;;;;;1.92;0.32;;;13.90;99.90;;;;;;5000182;28;20054;-79
2022/04/07 12:28:39;;;;;;;1.15;0.73;;;14.00;99.90;;;;;;5027211;28;20372;-81
2022/04/07 12:31:21;;;;;;;0.63;0.38;;;14.00;99.90;;;;;;5030682;28;20034;-80
2022/04/07 12:33:49;;;;;;;2.67;0.40;;;14.10;99.90;;;;;;5035280;28;20037;-81
2022/04/07 12:36:29;;;;;;;4.30;1.00;;;14.00;99.90;;;;;;5030352;28;20056;-81
2022/04/07 12:39:05;;;;;;;3.25;2.95;;;14.20;99.90;;;;;;5038266;28;20029;-80
2022/04/07 12:41:51;;;;;;;6.43;3.72;;;14.30;99.90;;;;;;5024571;28;20033;-80
2022/04/07 12:44:26;;;;;;;6.53;5.18;;;14.40;99.90;;;;;;5036405;28;20041;-81
2022/04/07 12:46:57;;;;;;;5.78;5.13;;;14.30;99.90;;;;;;5025227;28;20041;-81
2022/04/07 12:49:32;;;;;;;4.25;3.28;;;14.30;99.90;;;;;;5034747;28;20030;-80
2022/04/07 12:52:14;;;;;;;6.18;5.22;;;14.30;99.90;;;;;;5039270;28;20017;-80
2022/04/07 12:55:03;;;;;;;0.45;0.40;;;14.30;99.90;;;;;;5034746;28;20034;-82
2022/04/07 12:57:35;;;;;;;0.98;0.90;;;14.30;99.90;;;;;;5032471;28;20029;-80